createdAt,value
2023-05-17T00:00:11.102Z,102636.88
2023-05-17T00:02:38.555Z,102637.50
2023-05-17T00:05:05.602Z,102642.94
2023-05-17T00:07:32.170Z,102644.47
2023-05-17T00:09:58.772Z,102649.47
2023-05-17T00:12:25.579Z,102651.09
2023-05-17T00:14:53.467Z,102643.66
2023-05-17T00:17:20.026Z,102637.50
2023-05-17T00:19:46.672Z,102643.31
2023-05-17T00:22:13.293Z,102642.31
2023-05-17T00:24:39.796Z,102641.94
2023-05-17T00:27:06.301Z,102649.09
2023-05-17T00:29:32.822Z,102651.53
2023-05-17T00:31:59.299Z,102643.75
2023-05-17T00:34:25.792Z,102638.59
2023-05-17T00:36:52.294Z,102636.63
2023-05-17T00:39:18.877Z,102633.16
2023-05-17T00:41:45.567Z,102626.28
2023-05-17T00:44:12.096Z,102626.63
2023-05-17T00:46:38.676Z,102623.56
2023-05-17T00:49:05.226Z,102621.94
2023-05-17T00:51:31.959Z,102619.13
2023-05-17T00:53:59.051Z,102617.94
2023-05-17T00:56:25.794Z,102623.91
2023-05-17T00:58:53.512Z,102627.63
2023-05-17T01:01:20.078Z,102619.50
2023-05-17T01:03:46.729Z,102618.50
2023-05-17T01:06:13.605Z,102619.31
2023-05-17T01:08:40.223Z,102628.19
2023-05-17T01:11:29.446Z,102631.00
2023-05-17T01:14:18.666Z,102631.19
2023-05-17T01:16:56.410Z,102624.56
2023-05-17T01:19:50.786Z,102625.28
2023-05-17T01:22:29.338Z,102617.94
2023-05-17T01:25:24.470Z,102610.69
2023-05-17T01:27:54.101Z,102622.03
2023-05-17T01:30:23.012Z,102625.00
2023-05-17T01:32:51.016Z,102614.78
2023-05-17T01:35:17.693Z,102627.81
2023-05-17T01:37:44.313Z,102616.13
2023-05-17T01:40:11.375Z,102611.13
2023-05-17T01:42:41.713Z,102610.19
2023-05-17T01:45:16.634Z,102605.56
2023-05-17T01:47:43.114Z,102600.94
2023-05-17T01:50:12.808Z,102599.78
2023-05-17T01:52:51.161Z,102609.09
2023-05-17T01:55:26.293Z,102617.34
2023-05-17T01:57:55.917Z,102620.97
2023-05-17T02:00:25.157Z,102616.34
2023-05-17T02:02:51.804Z,102618.00
2023-05-17T02:05:18.496Z,102614.38
2023-05-17T02:07:45.033Z,102621.88
2023-05-17T02:10:11.816Z,102618.88
2023-05-17T02:12:38.307Z,102611.81
2023-05-17T02:15:05.479Z,102615.88
2023-05-17T02:17:32.053Z,102621.78
2023-05-17T02:19:58.583Z,102612.91
2023-05-17T02:22:25.108Z,102611.72
2023-05-17T02:24:51.842Z,102614.16
2023-05-17T02:27:18.381Z,102608.09
2023-05-17T02:29:44.934Z,102623.03
2023-05-17T02:32:11.446Z,102619.78
2023-05-17T02:34:37.929Z,102623.41
2023-05-17T02:37:04.682Z,102612.91
2023-05-17T02:39:33.606Z,102625.69
2023-05-17T02:42:00.155Z,102627.50
2023-05-17T02:44:26.691Z,102623.03
2023-05-17T02:46:53.312Z,102623.69
2023-05-17T02:49:19.891Z,102622.03
2023-05-17T02:51:46.491Z,102636.81
2023-05-17T02:54:12.998Z,102628.31
2023-05-17T02:56:39.460Z,102642.41
2023-05-17T02:59:06.067Z,102640.63
2023-05-17T03:01:32.557Z,102646.09
2023-05-17T03:03:59.202Z,102646.09
2023-05-17T03:06:25.939Z,102646.72
2023-05-17T03:08:52.500Z,102649.34
2023-05-17T03:11:19.000Z,102652.88
2023-05-17T03:13:46.440Z,102653.50
2023-05-17T03:16:13.012Z,102653.50
2023-05-17T03:18:39.645Z,102651.25
2023-05-17T03:21:06.379Z,102654.88
2023-05-17T03:23:32.947Z,102660.75
2023-05-17T03:25:59.464Z,102654.06
2023-05-17T03:28:26.077Z,102673.66
2023-05-17T03:30:52.917Z,102671.56
2023-05-17T03:33:19.727Z,102678.00
2023-05-17T03:35:49.351Z,102679.38
2023-05-17T03:38:16.061Z,102686.00
2023-05-17T03:40:42.676Z,102685.34
2023-05-17T03:43:09.211Z,102681.28
2023-05-17T03:45:35.802Z,102685.09
2023-05-17T03:48:02.496Z,102686.44
2023-05-17T03:50:29.946Z,102693.88
2023-05-17T03:52:56.520Z,102698.69
2023-05-17T03:55:23.093Z,102694.25
2023-05-17T03:57:49.773Z,102690.16
2023-05-17T04:00:21.315Z,102697.41
2023-05-17T04:02:48.720Z,102702.06
2023-05-17T04:05:15.487Z,102703.06
2023-05-17T04:07:42.122Z,102699.44
2023-05-17T04:10:09.066Z,102700.16
2023-05-17T04:12:35.615Z,102709.03
2023-05-17T04:15:02.271Z,102714.00
2023-05-17T04:17:28.934Z,102717.16
2023-05-17T04:19:55.717Z,102724.22
2023-05-17T04:22:22.356Z,102724.69
2023-05-17T04:24:48.949Z,102729.59
2023-05-17T04:27:15.857Z,102734.59
2023-05-17T04:29:42.364Z,102738.75
2023-05-17T04:32:09.235Z,102743.28
2023-05-17T04:34:36.525Z,102738.59
2023-05-17T04:37:03.884Z,102738.69
2023-05-17T04:39:31.207Z,102746.84
2023-05-17T04:41:57.856Z,102750.19
2023-05-17T04:44:24.495Z,102748.34
2023-05-17T04:46:52.116Z,102750.47
2023-05-17T04:49:18.971Z,102753.34
2023-05-17T04:51:45.516Z,102751.97
2023-05-17T04:54:12.194Z,102759.50
2023-05-17T04:56:38.789Z,102765.34
2023-05-17T04:59:05.540Z,102764.09
2023-05-17T05:01:32.717Z,102763.34
2023-05-17T05:03:59.453Z,102765.59
2023-05-17T05:06:26.270Z,102769.91
2023-05-17T05:08:52.855Z,102771.47
2023-05-17T05:11:19.471Z,102771.28
2023-05-17T05:13:46.193Z,102775.56
2023-05-17T05:16:12.718Z,102782.31
2023-05-17T05:18:39.422Z,102788.84
2023-05-17T05:21:06.480Z,102789.69
2023-05-17T05:23:33.152Z,102790.56
2023-05-17T05:25:59.681Z,102800.34
2023-05-17T05:28:26.269Z,102804.47
2023-05-17T05:31:00.847Z,102801.28
2023-05-17T05:33:27.899Z,102807.63
2023-05-17T05:35:54.514Z,102808.91
2023-05-17T05:38:21.173Z,102811.59
2023-05-17T05:40:50.573Z,102814.03
2023-05-17T05:43:17.276Z,102816.72
2023-05-17T05:45:46.755Z,102822.63
2023-05-17T05:48:14.099Z,102820.38
2023-05-17T05:50:44.542Z,102823.81
2023-05-17T05:53:18.728Z,102828.53
2023-05-17T05:55:46.588Z,102833.19
2023-05-17T05:58:13.109Z,102830.59
2023-05-17T06:00:39.677Z,102830.34
2023-05-17T06:03:06.964Z,102826.31
2023-05-17T06:05:33.771Z,102837.13
2023-05-17T06:08:00.497Z,102832.47
2023-05-17T06:10:27.546Z,102836.16
2023-05-17T06:12:54.225Z,102839.81
2023-05-17T06:15:20.790Z,102843.84
2023-05-17T06:17:47.546Z,102841.00
2023-05-17T06:20:15.047Z,102837.94
2023-05-17T06:22:41.673Z,102837.34
2023-05-17T06:25:08.439Z,102844.94
2023-05-17T06:27:34.952Z,102844.69
2023-05-17T06:30:01.714Z,102842.69
2023-05-17T06:32:28.471Z,102851.03
2023-05-17T06:34:55.511Z,102850.41
2023-05-17T06:37:22.128Z,102854.66
2023-05-17T06:39:55.799Z,102867.88
2023-05-17T06:42:26.348Z,102864.03
2023-05-17T06:44:52.946Z,102862.63
2023-05-17T06:47:19.453Z,102870.75
2023-05-17T06:49:46.000Z,102875.38
2023-05-17T06:52:12.660Z,102881.84
2023-05-17T06:54:39.247Z,102879.81
2023-05-17T06:57:05.958Z,102871.13
2023-05-17T06:59:32.683Z,102872.38
2023-05-17T07:02:01.796Z,102873.28
2023-05-17T07:04:28.445Z,102891.59
2023-05-17T07:06:55.229Z,102893.16
2023-05-17T07:09:21.951Z,102891.69
2023-05-17T07:11:48.608Z,102898.53
2023-05-17T07:14:15.508Z,102896.53
2023-05-17T07:16:42.091Z,102892.69
2023-05-17T07:19:08.760Z,102904.66
2023-05-17T07:21:35.874Z,102908.00
2023-05-17T07:24:02.593Z,102911.16
2023-05-17T07:26:29.155Z,102909.31
2023-05-17T07:28:56.000Z,102920.00
2023-05-17T07:31:22.565Z,102905.44
2023-05-17T07:33:49.068Z,102912.03
2023-05-17T07:36:15.730Z,102920.69
2023-05-17T07:38:42.392Z,102914.63
2023-05-17T07:41:09.527Z,102915.31
2023-05-17T07:43:39.635Z,102915.56
2023-05-17T07:46:06.485Z,102909.88
2023-05-17T07:48:33.219Z,102909.78
2023-05-17T07:50:59.935Z,102925.25
2023-05-17T07:53:26.556Z,102922.56
2023-05-17T07:55:53.391Z,102931.38
2023-05-17T07:58:19.904Z,102932.84
2023-05-17T08:00:46.433Z,102931.66
2023-05-17T08:03:14.477Z,102937.53
2023-05-17T08:05:42.338Z,102938.53
2023-05-17T08:08:08.940Z,102931.03
2023-05-17T08:10:37.776Z,102942.09
2023-05-17T08:13:06.177Z,102937.69
2023-05-17T08:15:32.818Z,102948.91
2023-05-17T08:18:00.861Z,102931.63
2023-05-17T08:20:28.984Z,102938.50
2023-05-17T08:22:56.219Z,102946.25
2023-05-17T08:25:22.965Z,102958.09
2023-05-17T08:27:49.498Z,102942.84
2023-05-17T08:30:27.929Z,102955.59
2023-05-17T08:32:56.635Z,102956.75
2023-05-17T08:35:25.530Z,102952.22
2023-05-17T08:37:53.790Z,102953.88
2023-05-17T08:40:23.932Z,102954.56
2023-05-17T08:42:52.318Z,102959.50
2023-05-17T08:45:19.024Z,102948.75
2023-05-17T08:47:46.686Z,102953.91
2023-05-17T08:50:14.280Z,102942.09
2023-05-17T08:52:44.812Z,102951.69
2023-05-17T08:55:11.762Z,102958.41
2023-05-17T08:57:39.407Z,102956.19
2023-05-17T09:00:09.418Z,102950.47
2023-05-17T09:02:36.723Z,102950.88
2023-05-17T09:05:03.893Z,102967.16
2023-05-17T09:07:30.636Z,102969.25
2023-05-17T09:09:58.501Z,102971.91
2023-05-17T09:12:25.744Z,102960.22
2023-05-17T09:14:52.400Z,102973.63
2023-05-17T09:17:21.154Z,102976.66
2023-05-17T09:19:48.935Z,102975.44
2023-05-17T09:22:19.043Z,102967.72
2023-05-17T09:24:46.822Z,102970.19
2023-05-17T09:27:18.518Z,102983.44
2023-05-17T09:29:46.256Z,102979.38
2023-05-17T09:32:14.621Z,102987.13
2023-05-17T09:34:42.399Z,102979.97
2023-05-17T09:37:20.047Z,102985.44
2023-05-17T09:39:48.031Z,102982.59
2023-05-17T09:42:16.649Z,102985.25
2023-05-17T09:44:57.742Z,102975.72
2023-05-17T09:47:26.870Z,102991.81
2023-05-17T09:49:55.478Z,102992.81
2023-05-17T09:52:23.357Z,102990.94
2023-05-17T09:54:56.467Z,102985.63
2023-05-17T09:57:25.209Z,102990.53
2023-05-17T09:59:55.893Z,102983.63
2023-05-17T10:02:26.682Z,102993.63
2023-05-17T10:04:56.924Z,102984.47
2023-05-17T10:07:26.143Z,102984.88
2023-05-17T10:09:56.321Z,102978.16
2023-05-17T10:12:25.581Z,102988.13
2023-05-17T10:14:56.136Z,102991.19
2023-05-17T10:17:24.457Z,102992.00
2023-05-17T10:19:51.505Z,102996.50
2023-05-17T10:22:23.677Z,102995.03
2023-05-17T10:24:51.915Z,102986.53
2023-05-17T10:27:19.012Z,102993.81
2023-05-17T10:29:49.857Z,102998.31
2023-05-17T10:32:23.231Z,102993.63
2023-05-17T10:35:01.468Z,103002.19
2023-05-17T10:37:33.702Z,103003.78
2023-05-17T10:40:00.796Z,102983.06
2023-05-17T10:42:28.131Z,102988.34
2023-05-17T10:44:54.833Z,102994.25
2023-05-17T10:47:22.334Z,102991.78
2023-05-17T10:49:51.555Z,102989.13
2023-05-17T10:52:21.553Z,102983.84
2023-05-17T10:54:50.082Z,102983.25
2023-05-17T10:57:22.821Z,102993.63
2023-05-17T11:00:00.025Z,102998.53
2023-05-17T11:02:28.112Z,102999.34
2023-05-17T11:04:56.559Z,103002.16
2023-05-17T11:07:32.634Z,102987.53
2023-05-17T11:10:08.617Z,102988.16
2023-05-17T11:12:40.276Z,102986.31
2023-05-17T11:15:12.573Z,102988.56
2023-05-17T11:17:51.706Z,102984.69
2023-05-17T11:20:35.415Z,102985.91
2023-05-17T11:23:07.718Z,102985.50
2023-05-17T11:25:38.752Z,102983.03
2023-05-17T11:28:17.561Z,102989.16
2023-05-17T11:30:51.229Z,102994.63
2023-05-17T11:33:29.844Z,102991.59
2023-05-17T11:36:06.190Z,102986.72
2023-05-17T11:38:34.309Z,102978.16
2023-05-17T11:43:50.091Z,102999.56
2023-05-17T11:46:21.664Z,102990.41
2023-05-17T11:48:50.995Z,102995.50
2023-05-17T11:51:20.758Z,102992.63
2023-05-17T11:53:50.003Z,102988.34
2023-05-17T11:56:16.804Z,102982.44
2023-05-17T11:58:43.926Z,102978.97
2023-05-17T12:01:10.655Z,102988.94
2023-05-17T12:03:37.265Z,102985.50
2023-05-17T12:06:13.087Z,102983.06
2023-05-17T12:08:43.442Z,102987.16
2023-05-17T12:11:14.733Z,102977.34
2023-05-17T12:13:46.840Z,102975.31
2023-05-17T12:16:17.761Z,102978.78
2023-05-17T12:18:51.822Z,102977.75
2023-05-17T12:21:19.299Z,102971.03
2023-05-17T12:23:50.299Z,102974.91
2023-05-17T12:26:19.840Z,102982.22
2023-05-17T12:28:53.964Z,102986.31
2023-05-17T12:31:25.881Z,102975.13
2023-05-17T12:33:52.964Z,102971.47
2023-05-17T12:36:20.025Z,102972.88
2023-05-17T12:38:47.385Z,102986.13
2023-05-17T12:41:15.760Z,102977.16
2023-05-17T12:43:45.034Z,102962.88
2023-05-17T12:46:20.392Z,102975.09
2023-05-17T12:48:50.674Z,102973.28
2023-05-17T12:51:19.611Z,102975.31
2023-05-17T12:54:01.127Z,102973.69
2023-05-17T12:56:28.955Z,102969.81
2023-05-17T12:59:20.866Z,102967.19
2023-05-17T13:01:52.764Z,102968.38
2023-05-17T13:04:20.900Z,102961.69
2023-05-17T13:06:55.115Z,102965.16
2023-05-17T13:09:24.069Z,102971.47
2023-05-17T13:11:55.183Z,102978.56
2023-05-17T13:14:46.037Z,102966.97
2023-05-17T13:17:21.082Z,102972.69
2023-05-17T13:19:48.042Z,102965.56
2023-05-17T13:22:15.746Z,102965.16
2023-05-17T13:24:43.938Z,102961.66
2023-05-17T13:27:11.582Z,102966.34
2023-05-17T13:29:41.683Z,102969.41
2023-05-17T13:32:10.712Z,102970.41
2023-05-17T13:34:37.560Z,102964.09
2023-05-17T13:37:05.610Z,102960.22
2023-05-17T13:39:33.464Z,102964.31
2023-05-17T13:42:00.203Z,102956.59
2023-05-17T13:44:26.917Z,102955.78
2023-05-17T13:46:53.537Z,102968.19
2023-05-17T13:49:20.170Z,102966.53
2023-05-17T13:51:46.770Z,102948.81
2023-05-17T13:54:13.290Z,102948.81
2023-05-17T13:56:39.910Z,102952.09
2023-05-17T13:59:06.408Z,102954.72
2023-05-17T14:01:32.911Z,102948.63
2023-05-17T14:06:27.220Z,102948.41
2023-05-17T14:08:54.471Z,102938.63
2023-05-17T14:11:21.539Z,102941.28
2023-05-17T14:13:48.063Z,102954.94
2023-05-17T14:16:14.861Z,102944.13
2023-05-17T14:18:41.715Z,102958.19
2023-05-17T14:21:08.586Z,102956.16
2023-05-17T14:23:36.161Z,102954.94
2023-05-17T14:26:07.084Z,102962.91
2023-05-17T14:28:37.966Z,102940.72
2023-05-17T14:31:08.712Z,102950.88
2023-05-17T14:33:35.751Z,102947.22
2023-05-17T14:36:04.216Z,102944.16
2023-05-17T14:38:31.366Z,102950.84
2023-05-17T14:41:00.689Z,102942.09
2023-05-17T14:43:27.454Z,102943.09
2023-05-17T14:45:54.033Z,102945.56
2023-05-17T14:48:20.753Z,102945.16
2023-05-17T14:50:47.401Z,102948.41
2023-05-17T14:53:13.903Z,102956.97
2023-05-17T14:55:40.478Z,102958.41
2023-05-17T14:58:07.034Z,102964.31
2023-05-17T15:00:34.894Z,102961.25
2023-05-17T15:03:01.757Z,102964.75
2023-05-17T15:05:29.001Z,102953.13
2023-05-17T15:07:55.810Z,102965.13
2023-05-17T15:10:22.960Z,102961.84
2023-05-17T15:12:49.897Z,102952.09
2023-05-17T15:15:16.658Z,102956.97
2023-05-17T15:17:43.266Z,102953.50
2023-05-17T15:20:10.785Z,102946.38
2023-05-17T15:22:37.709Z,102934.97
2023-05-17T15:25:05.598Z,102948.81
2023-05-17T15:27:32.427Z,102956.16
2023-05-17T15:29:59.166Z,102943.94
2023-05-17T15:32:26.878Z,102948.41
2023-05-17T15:34:53.615Z,102955.75
2023-05-17T15:37:20.215Z,102948.81
2023-05-17T15:39:47.802Z,102947.19
2023-05-17T15:42:14.596Z,102938.22
2023-05-17T15:44:41.234Z,102952.50
2023-05-17T15:47:07.955Z,102946.38
2023-05-17T15:49:35.145Z,102947.63
2023-05-17T15:52:02.051Z,102940.31
2023-05-17T15:54:29.094Z,102938.44
2023-05-17T15:56:55.941Z,102943.53
2023-05-17T15:59:22.768Z,102945.97
2023-05-17T16:01:49.397Z,102955.78
2023-05-17T16:04:19.215Z,102954.75
2023-05-17T16:06:48.249Z,102942.13
2023-05-17T16:09:14.967Z,102941.94
2023-05-17T16:11:41.964Z,102948.03
2023-05-17T16:14:09.809Z,102934.59
2023-05-17T16:16:36.551Z,102952.13
2023-05-17T16:19:04.661Z,102939.50
2023-05-17T16:21:31.618Z,102935.63
2023-05-17T16:23:58.346Z,102935.78
2023-05-17T16:26:25.163Z,102933.59
2023-05-17T16:28:52.200Z,102934.19
2023-05-17T16:31:18.960Z,102930.13
2023-05-17T16:33:45.800Z,102934.59
2023-05-17T16:36:12.598Z,102931.94
2023-05-17T16:38:41.764Z,102933.75
2023-05-17T16:41:08.452Z,102937.84
2023-05-17T16:43:35.116Z,102938.25
2023-05-17T16:46:02.126Z,102937.03
2023-05-17T16:48:28.891Z,102941.94
2023-05-17T16:50:56.173Z,102945.59
2023-05-17T16:53:23.111Z,102949.66
2023-05-17T16:55:49.764Z,102940.69
2023-05-17T16:58:16.497Z,102940.09
2023-05-17T17:00:43.166Z,102932.16
2023-05-17T17:03:10.169Z,102936.63
2023-05-17T17:05:40.012Z,102952.09
2023-05-17T17:08:06.817Z,102947.63
2023-05-17T17:10:34.761Z,102953.09
2023-05-17T17:13:01.682Z,102951.69
2023-05-17T17:15:30.326Z,102959.03
2023-05-17T17:17:57.088Z,102955.38
2023-05-17T17:20:26.043Z,102962.47
2023-05-17T17:22:55.705Z,102960.22
2023-05-17T17:25:24.758Z,102961.63
2023-05-17T17:27:53.132Z,102950.44
2023-05-17T17:30:20.199Z,102960.22
2023-05-17T17:32:47.033Z,102955.53
2023-05-17T17:35:15.826Z,102962.44
2023-05-17T17:37:42.476Z,102956.53
2023-05-17T17:40:11.871Z,102950.81
2023-05-17T17:42:38.849Z,102957.13
2023-05-17T17:45:06.125Z,102966.25
2023-05-17T17:47:32.825Z,102964.63
2023-05-17T17:49:59.526Z,102955.66
2023-05-17T17:52:26.459Z,102961.13
2023-05-17T17:54:53.108Z,102958.25
2023-05-17T17:57:20.252Z,102956.81
2023-05-17T17:59:46.877Z,102957.63
2023-05-17T18:02:14.342Z,102959.66
2023-05-17T18:04:41.344Z,102962.31
2023-05-17T18:07:08.075Z,102962.09
2023-05-17T18:09:34.606Z,102966.56
2023-05-17T18:12:01.454Z,102956.59
2023-05-17T18:14:27.949Z,102960.41
2023-05-17T18:16:54.456Z,102966.09
2023-05-17T18:19:21.208Z,102966.44
2023-05-17T18:21:50.264Z,102973.72
2023-05-17T18:24:16.844Z,102972.06
2023-05-17T18:26:43.423Z,102978.53
2023-05-17T18:29:10.299Z,102971.19
2023-05-17T18:31:36.908Z,102974.22
2023-05-17T18:34:03.519Z,102977.25
2023-05-17T18:36:30.148Z,102973.16
2023-05-17T18:39:00.952Z,102977.19
2023-05-17T18:41:27.602Z,102972.31
2023-05-17T18:43:54.178Z,102982.25
2023-05-17T18:46:20.710Z,102974.72
2023-05-17T18:48:47.236Z,102973.66
2023-05-17T18:51:15.780Z,102970.16
2023-05-17T18:53:42.349Z,102975.75
2023-05-17T18:56:08.970Z,102964.97
2023-05-17T18:58:35.487Z,102976.13
2023-05-17T19:01:02.710Z,102976.06
2023-05-17T19:03:29.842Z,102980.44
2023-05-17T19:05:56.504Z,102984.47
2023-05-17T19:08:23.026Z,102990.94
2023-05-17T19:10:49.828Z,102990.22
2023-05-17T19:13:16.420Z,103001.13
2023-05-17T19:15:42.943Z,102994.22
2023-05-17T19:18:09.592Z,102995.63
2023-05-17T19:20:36.320Z,103001.84
2023-05-17T19:23:03.676Z,102994.28
2023-05-17T19:25:30.232Z,102997.13
2023-05-17T19:27:56.928Z,102999.50
2023-05-17T19:30:23.535Z,102998.84
2023-05-17T19:32:50.121Z,103002.22
2023-05-17T19:35:16.760Z,103008.69
2023-05-17T19:37:43.332Z,103012.69
2023-05-17T19:40:10.342Z,103005.81
2023-05-17T19:42:36.866Z,103004.56
2023-05-17T19:45:03.505Z,103013.81
2023-05-17T19:47:30.113Z,103011.75
2023-05-17T19:49:56.755Z,103005.19
2023-05-17T19:52:23.278Z,103009.66
2023-05-17T19:54:49.879Z,103001.28
2023-05-17T19:57:16.370Z,103002.66
2023-05-17T19:59:42.871Z,103007.66
2023-05-17T20:02:09.648Z,103018.38
2023-05-17T20:04:36.565Z,103006.41
2023-05-17T20:07:03.150Z,103012.88
2023-05-17T20:09:32.425Z,103012.22
2023-05-17T20:11:59.114Z,103014.22
2023-05-17T20:14:27.299Z,103010.13
2023-05-17T20:16:54.096Z,103010.31
2023-05-17T20:19:20.736Z,103011.84
2023-05-17T20:21:47.602Z,103016.84
2023-05-17T20:24:14.252Z,103015.22
2023-05-17T20:26:40.920Z,103011.47
2023-05-17T20:29:08.214Z,103014.66
2023-05-17T20:31:36.268Z,103003.22
2023-05-17T20:34:04.099Z,103005.22
2023-05-17T20:36:31.522Z,103010.84
2023-05-17T20:38:58.529Z,103004.94
2023-05-17T20:41:25.105Z,103015.47
2023-05-17T20:43:52.477Z,103017.63
2023-05-17T20:46:19.134Z,103008.47
2023-05-17T20:48:48.005Z,103012.25
2023-05-17T20:51:15.457Z,103014.63
2023-05-17T20:53:42.146Z,103018.59
2023-05-17T20:56:08.708Z,103015.97
2023-05-17T20:58:35.452Z,103018.94
2023-05-17T21:01:02.211Z,103021.66
2023-05-17T21:03:33.168Z,103020.91
2023-05-17T21:06:01.356Z,103028.34
2023-05-17T21:08:28.347Z,103013.72
2023-05-17T21:10:55.821Z,103011.63
2023-05-17T21:13:23.922Z,103021.66
2023-05-17T21:15:50.531Z,103026.13
2023-05-17T21:18:17.142Z,103022.19
2023-05-17T21:20:43.743Z,103022.38
2023-05-17T21:23:10.413Z,103011.19
2023-05-17T21:25:37.867Z,103018.78
2023-05-17T21:28:05.849Z,103022.63
2023-05-17T21:30:32.953Z,103027.25
2023-05-17T21:32:59.902Z,103024.09
2023-05-17T21:35:26.467Z,103028.19
2023-05-17T21:37:53.016Z,103025.25
2023-05-17T21:40:19.683Z,103030.88
2023-05-17T21:42:46.530Z,103030.22
2023-05-17T21:45:14.675Z,103026.47
2023-05-17T21:47:41.584Z,103029.81
2023-05-17T21:50:08.430Z,103030.69
2023-05-17T21:52:35.074Z,103029.69
2023-05-17T21:55:01.643Z,103026.25
2023-05-17T21:57:28.162Z,103031.66
2023-05-17T21:59:54.714Z,103021.00
2023-05-17T22:02:21.267Z,103024.50
2023-05-17T22:04:47.888Z,103031.25
2023-05-17T22:07:14.560Z,103019.44
2023-05-17T22:09:41.162Z,103022.28
2023-05-17T22:12:08.600Z,103025.50
2023-05-17T22:14:36.444Z,103026.53
2023-05-17T22:17:08.809Z,103020.63
2023-05-17T22:19:40.800Z,103021.78
2023-05-17T22:22:08.267Z,103016.72
2023-05-17T22:24:35.635Z,103025.56
2023-05-17T22:27:03.388Z,103022.94
2023-05-17T22:29:29.922Z,103025.25
2023-05-17T22:31:56.582Z,103025.13
2023-05-17T22:34:23.212Z,103029.22
2023-05-17T22:36:49.774Z,103025.78
2023-05-17T22:39:16.322Z,103036.28
2023-05-17T22:41:42.954Z,103035.50
2023-05-17T22:44:09.525Z,103037.50
2023-05-17T22:46:37.900Z,103027.81
2023-05-17T22:49:04.602Z,103036.53
2023-05-17T22:51:35.225Z,103043.75
2023-05-17T22:54:03.277Z,103046.06
2023-05-17T22:56:30.126Z,103050.00
2023-05-17T22:58:56.876Z,103043.09
2023-05-17T23:01:23.434Z,103045.41
2023-05-17T23:03:50.076Z,103039.16
2023-05-17T23:06:16.931Z,103044.75
2023-05-17T23:08:43.455Z,103036.53
2023-05-17T23:11:09.996Z,103042.31
2023-05-17T23:13:36.535Z,103045.94
2023-05-17T23:16:04.225Z,103044.13
2023-05-17T23:18:31.091Z,103047.91
2023-05-17T23:20:58.977Z,103039.84
2023-05-17T23:23:25.811Z,103044.13
2023-05-17T23:25:52.442Z,103043.13
2023-05-17T23:28:19.108Z,103047.41
2023-05-17T23:30:48.494Z,103055.44
2023-05-17T23:33:15.493Z,103043.31
2023-05-17T23:35:42.059Z,103052.00
2023-05-17T23:38:08.609Z,103045.94
2023-05-17T23:40:35.206Z,103042.00
2023-05-17T23:43:01.713Z,103041.81
2023-05-17T23:45:28.368Z,103042.47
2023-05-17T23:47:55.600Z,103039.50
2023-05-17T23:50:22.168Z,103034.28
2023-05-17T23:52:48.639Z,103033.66
2023-05-17T23:55:15.212Z,103029.72
2023-05-17T23:57:42.446Z,103032.00
